Time;durP1;ratioP1;P1;durP2;ratioP2;P2;SDS_P1;SDS_P2;PMS_P1;PMS_P2;Temp;Humidity;BMP_temperature;BMP_pressure;BME280_temperature;BME280_humidity;BME280_pressure;Samples;Min_cycle;Max_cycle;Signal;HPM_P1;HPM_P2
2021/12/15 00:02:26;;;;;;;154.77;63.65;;;9.80;99.90;;;;;;5068275;28;20445;-71
2021/12/15 00:04:55;;;;;;;150.23;62.55;;;9.80;99.90;;;;;;5073061;28;20085;-71
2021/12/15 00:07:23;;;;;;;145.35;62.75;;;9.80;99.90;;;;;;5072108;28;20047;-71
2021/12/15 00:09:49;;;;;;;134.43;62.15;;;9.80;99.90;;;;;;5057204;28;20111;-71
2021/12/15 00:12:17;;;;;;;152.10;66.43;;;9.80;99.90;;;;;;5062669;28;20036;-71
2021/12/15 00:14:44;;;;;;;136.00;63.67;;;9.90;99.90;;;;;;5069694;28;20047;-71
2021/12/15 00:17:14;;;;;;;147.77;67.07;;;9.80;99.90;;;;;;5070746;28;20101;-71
2021/12/15 00:19:39;;;;;;;136.70;64.10;;;9.80;99.90;;;;;;5065516;28;20047;-71
2021/12/15 00:22:06;;;;;;;139.48;64.93;;;9.80;99.90;;;;;;5066069;28;20036;-71
2021/12/15 00:24:32;;;;;;;130.43;62.97;;;9.80;99.90;;;;;;5073860;28;20051;-71
2021/12/15 00:26:57;;;;;;;145.50;65.60;;;9.80;99.90;;;;;;5085496;28;20052;-71
2021/12/15 00:29:24;;;;;;;139.80;65.82;;;9.80;99.90;;;;;;5067517;28;20554;-71
2021/12/15 00:31:53;;;;;;;132.52;63.65;;;9.80;99.90;;;;;;5065793;28;20868;-71
2021/12/15 00:34:19;;;;;;;124.93;61.33;;;9.80;99.90;;;;;;5056461;28;20048;-71
2021/12/15 00:36:48;;;;;;;129.23;62.95;;;9.90;99.90;;;;;;5065715;28;20087;-71
2021/12/15 00:39:17;;;;;;;132.70;63.75;;;9.80;99.90;;;;;;5060767;28;20049;-71
2021/12/15 00:41:43;;;;;;;119.50;59.00;;;9.90;99.90;;;;;;5066395;28;20070;-71
2021/12/15 00:44:10;;;;;;;114.10;59.53;;;9.90;99.90;;;;;;5066580;28;20773;-71
2021/12/15 00:46:36;;;;;;;137.60;64.13;;;9.80;99.90;;;;;;5068998;28;20047;-71
2021/12/15 00:49:04;;;;;;;144.07;64.07;;;9.90;99.90;;;;;;5059832;28;20680;-71
2021/12/15 00:51:30;;;;;;;119.47;60.22;;;9.90;99.90;;;;;;5070439;28;20408;-71
2021/12/15 00:53:56;;;;;;;126.10;60.08;;;9.90;99.90;;;;;;5077396;28;20082;-71
2021/12/15 00:56:22;;;;;;;127.53;63.25;;;9.90;99.90;;;;;;5074062;28;20055;-71
2021/12/15 00:58:48;;;;;;;121.72;63.85;;;9.90;99.90;;;;;;5079105;28;20035;-71
2021/12/15 01:01:14;;;;;;;122.13;60.35;;;9.80;99.90;;;;;;5077879;28;20160;-71
2021/12/15 01:03:40;;;;;;;124.72;63.13;;;9.90;99.90;;;;;;5073487;28;20078;-71
2021/12/15 01:06:12;;;;;;;123.55;59.65;;;9.90;99.90;;;;;;5072113;28;20033;-71
2021/12/15 01:08:45;;;;;;;125.75;58.33;;;9.90;99.90;;;;;;5061053;28;20040;-71
2021/12/15 01:11:31;;;;;;;119.43;59.40;;;9.90;99.90;;;;;;5058892;28;20036;-71
2021/12/15 01:19:54;;;;;;;124.50;56.25;;;9.90;99.90;;;;;;5071640;28;20345;-71
2021/12/15 01:22:41;;;;;;;125.22;57.95;;;9.90;99.90;;;;;;5070446;28;20716;-71
2021/12/15 01:25:13;;;;;;;122.18;56.95;;;9.90;99.90;;;;;;5069494;28;20044;-71
2021/12/15 01:27:40;;;;;;;108.05;55.17;;;9.90;99.90;;;;;;5067651;28;20052;-71
2021/12/15 01:30:08;;;;;;;125.35;58.63;;;9.90;99.90;;;;;;5084232;28;20412;-71
2021/12/15 01:32:34;;;;;;;122.75;59.65;;;9.90;99.90;;;;;;5071590;28;20045;-71
2021/12/15 01:34:59;;;;;;;130.00;58.70;;;9.90;99.90;;;;;;5072781;28;20089;-71
2021/12/15 01:37:25;;;;;;;130.65;59.10;;;9.90;99.90;;;;;;5069415;28;20102;-71
2021/12/15 01:39:55;;;;;;;127.45;58.95;;;9.90;99.90;;;;;;5069703;28;20492;-71
2021/12/15 01:42:25;;;;;;;124.53;55.97;;;9.90;99.90;;;;;;5070893;28;20048;-71
2021/12/15 01:47:36;;;;;;;118.10;56.60;;;9.90;99.90;;;;;;5065042;28;20056;-71
2021/12/15 01:50:02;;;;;;;108.43;55.13;;;9.90;99.90;;;;;;5070849;28;20054;-71
2021/12/15 01:52:32;;;;;;;113.63;55.22;;;9.90;99.90;;;;;;5062802;28;20055;-71
2021/12/15 01:55:16;;;;;;;116.95;55.88;;;9.90;99.90;;;;;;5071088;28;20035;-71
2021/12/15 01:57:43;;;;;;;109.53;54.42;;;9.90;99.90;;;;;;5069537;28;20131;-71
2021/12/15 02:00:17;;;;;;;108.40;53.40;;;9.90;99.90;;;;;;5069845;28;20048;-71
2021/12/15 02:02:43;;;;;;;113.57;53.90;;;10.00;99.90;;;;;;5068929;28;20044;-71
2021/12/15 02:05:10;;;;;;;110.22;53.60;;;10.00;99.90;;;;;;5079808;28;20063;-71
2021/12/15 02:07:36;;;;;;;106.95;52.35;;;10.00;99.90;;;;;;5073159;28;20071;-71
2021/12/15 02:10:05;;;;;;;107.55;53.35;;;10.00;99.90;;;;;;5073832;28;20523;-71
2021/12/15 02:12:36;;;;;;;117.65;54.75;;;10.00;99.90;;;;;;5072001;28;20791;-71
2021/12/15 02:15:10;;;;;;;115.80;51.35;;;10.00;99.90;;;;;;5067226;28;20489;-71
2021/12/15 02:17:36;;;;;;;100.40;51.67;;;10.00;99.90;;;;;;5069604;28;20047;-71
2021/12/15 02:20:04;;;;;;;118.22;56.28;;;10.00;99.90;;;;;;5085471;28;20119;-71
2021/12/15 02:22:31;;;;;;;106.80;51.75;;;10.00;99.90;;;;;;5079886;28;20052;-71
2021/12/15 02:24:56;;;;;;;106.15;53.63;;;10.00;99.90;;;;;;5070169;28;20087;-71
2021/12/15 02:27:22;;;;;;;115.07;55.95;;;10.00;99.90;;;;;;5074703;28;20090;-71
2021/12/15 02:29:52;;;;;;;118.80;55.75;;;10.00;99.90;;;;;;5063173;28;20052;-71
2021/12/15 02:37:48;;;;;;;111.80;54.60;;;10.00;99.90;;;;;;5072191;28;20059;-71
2021/12/15 02:40:17;;;;;;;120.03;56.65;;;10.00;99.90;;;;;;5070771;28;20047;-71
2021/12/15 02:42:46;;;;;;;113.00;53.17;;;9.90;99.90;;;;;;5070394;28;20512;-71
2021/12/15 02:45:16;;;;;;;109.82;51.85;;;10.00;99.90;;;;;;5068530;28;20417;-71
2021/12/15 02:47:42;;;;;;;126.88;56.70;;;10.00;99.90;;;;;;5063989;28;20057;-71
2021/12/15 02:50:12;;;;;;;122.05;53.38;;;10.00;99.90;;;;;;5058753;28;20059;-71
2021/12/15 02:52:38;;;;;;;112.50;53.80;;;10.00;99.90;;;;;;5070592;28;20052;-71
2021/12/15 02:55:06;;;;;;;121.28;55.50;;;10.00;99.90;;;;;;5065794;28;20067;-71
2021/12/15 02:57:32;;;;;;;119.43;55.67;;;10.00;99.90;;;;;;5068311;28;20044;-71
2021/12/15 03:00:03;;;;;;;119.15;56.25;;;10.00;99.90;;;;;;5069643;28;20093;-71
2021/12/15 03:05:15;;;;;;;116.55;55.10;;;10.00;99.90;;;;;;5067793;28;20114;-71
2021/12/15 03:07:55;;;;;;;111.25;52.70;;;10.00;99.90;;;;;;5064828;28;20119;-71
2021/12/15 03:15:52;;;;;;;120.88;54.67;;;10.00;99.90;;;;;;5064102;28;20501;-71
2021/12/15 03:18:24;;;;;;;113.80;54.95;;;10.00;99.90;;;;;;5088193;28;20093;-71
2021/12/15 03:20:58;;;;;;;120.47;55.03;;;10.00;99.90;;;;;;5062129;28;20123;-71
2021/12/15 03:23:30;;;;;;;108.55;51.25;;;10.00;99.90;;;;;;5064178;28;20448;-71
2021/12/15 03:25:57;;;;;;;113.20;52.33;;;10.00;99.90;;;;;;5074302;28;20059;-71
2021/12/15 03:34:09;;;;;;;121.72;54.08;;;10.00;99.90;;;;;;5068865;28;20055;-71
2021/12/15 03:37:21;;;;;;;111.95;53.08;;;10.00;99.90;;;;;;5067573;28;20044;-71
2021/12/15 03:39:45;;;;;;;110.10;55.20;;;10.00;99.90;;;;;;5061854;28;20120;-71
2021/12/15 03:42:12;;;;;;;110.50;55.05;;;10.00;99.90;;;;;;5069918;28;20054;-71
2021/12/15 03:44:42;;;;;;;124.68;57.80;;;10.00;99.90;;;;;;5069953;28;20128;-71
2021/12/15 03:47:14;;;;;;;114.20;56.40;;;10.00;99.90;;;;;;5076138;28;20463;-71
2021/12/15 03:49:41;;;;;;;122.50;56.67;;;10.00;99.90;;;;;;5072993;28;20047;-71
2021/12/15 03:52:09;;;;;;;128.07;58.58;;;10.00;99.90;;;;;;5069464;28;20775;-71
2021/12/15 03:54:35;;;;;;;124.68;56.22;;;10.00;99.90;;;;;;5088194;28;20039;-71
2021/12/15 03:57:01;;;;;;;123.68;59.80;;;10.00;99.90;;;;;;5066138;28;20132;-71
2021/12/15 03:59:28;;;;;;;127.80;57.38;;;10.00;99.90;;;;;;5059523;28;20119;-71
2021/12/15 04:01:55;;;;;;;122.23;58.63;;;10.00;99.90;;;;;;5059551;28;20063;-71
2021/12/15 04:04:20;;;;;;;122.57;56.30;;;10.00;99.90;;;;;;5065762;28;20044;-71
2021/12/15 04:06:46;;;;;;;123.55;55.63;;;10.00;99.90;;;;;;5072928;28;20048;-71
2021/12/15 04:09:13;;;;;;;123.53;59.17;;;10.00;99.90;;;;;;5063317;28;20564;-71
2021/12/15 04:11:41;;;;;;;139.38;60.22;;;10.00;99.90;;;;;;5062682;28;20127;-71
2021/12/15 04:14:11;;;;;;;126.13;60.53;;;10.00;99.90;;;;;;5064865;28;20493;-71
2021/12/15 04:16:46;;;;;;;137.82;63.03;;;10.00;99.90;;;;;;5078347;28;20286;-71
2021/12/15 04:19:16;;;;;;;132.45;60.70;;;10.00;99.90;;;;;;5080084;28;20299;-71
2021/12/15 04:21:42;;;;;;;128.70;61.30;;;10.00;99.90;;;;;;5063959;28;20131;-71
2021/12/15 04:24:14;;;;;;;131.68;61.40;;;10.00;99.90;;;;;;5068684;28;20036;-71
2021/12/15 04:26:39;;;;;;;139.25;63.25;;;10.00;99.90;;;;;;5069957;28;20098;-71
2021/12/15 04:29:06;;;;;;;133.93;64.05;;;10.00;99.90;;;;;;5068727;28;20056;-71
2021/12/15 04:31:35;;;;;;;134.77;62.17;;;10.00;99.90;;;;;;5065966;28;20058;-71
2021/12/15 04:34:05;;;;;;;141.82;65.38;;;10.00;99.90;;;;;;5064334;28;20502;-71
2021/12/15 04:36:38;;;;;;;136.07;63.08;;;10.00;99.90;;;;;;5080558;28;20146;-71
2021/12/15 04:39:06;;;;;;;134.65;66.55;;;10.00;99.90;;;;;;5065988;28;20386;-71
2021/12/15 04:41:33;;;;;;;151.30;64.10;;;10.00;99.90;;;;;;5070611;28;20052;-71
2021/12/15 04:44:00;;;;;;;143.85;65.93;;;10.00;99.90;;;;;;5085000;28;20091;-71
2021/12/15 04:46:33;;;;;;;145.60;65.05;;;10.00;99.90;;;;;;5068944;28;20120;-71
2021/12/15 04:49:00;;;;;;;140.75;66.25;;;9.90;99.90;;;;;;5069259;28;20040;-71
2021/12/15 04:51:26;;;;;;;137.90;66.43;;;9.90;99.90;;;;;;5068762;28;20114;-71
2021/12/15 04:53:52;;;;;;;154.80;69.75;;;9.90;99.90;;;;;;5074493;28;20492;-71
2021/12/15 04:56:19;;;;;;;146.05;66.53;;;9.90;99.90;;;;;;5070070;28;20101;-71
2021/12/15 04:58:47;;;;;;;151.48;69.15;;;9.90;99.90;;;;;;5061383;28;20155;-71
2021/12/15 05:01:13;;;;;;;143.77;70.40;;;9.90;99.90;;;;;;5052122;28;20039;-71
2021/12/15 05:03:39;;;;;;;134.77;67.25;;;9.90;99.90;;;;;;5068723;28;20051;-71
2021/12/15 05:06:06;;;;;;;153.55;69.18;;;9.90;99.90;;;;;;5067484;28;20456;-71
2021/12/15 05:08:34;;;;;;;148.95;67.28;;;9.90;99.90;;;;;;5086838;28;20123;-71
2021/12/15 05:11:00;;;;;;;136.48;68.00;;;9.90;99.90;;;;;;5065078;28;20448;-71
2021/12/15 05:13:27;;;;;;;140.63;72.32;;;9.90;99.90;;;;;;5065287;28;20047;-71
2021/12/15 05:15:54;;;;;;;136.38;63.95;;;9.90;99.90;;;;;;5080237;28;20091;-71
2021/12/15 05:18:20;;;;;;;145.40;71.00;;;9.90;99.90;;;;;;5067769;28;20051;-71
2021/12/15 05:20:47;;;;;;;144.35;69.85;;;9.90;99.90;;;;;;5059403;28;20048;-71
2021/12/15 05:23:14;;;;;;;142.25;67.72;;;9.90;99.90;;;;;;5068825;28;20063;-71
2021/12/15 05:25:40;;;;;;;137.75;67.18;;;9.90;99.90;;;;;;5063131;28;20126;-71
2021/12/15 05:28:06;;;;;;;129.50;66.20;;;9.90;99.90;;;;;;5066409;28;20040;-71
2021/12/15 05:30:32;;;;;;;143.52;66.50;;;9.90;99.90;;;;;;5068347;28;20056;-71
2021/12/15 05:32:58;;;;;;;142.50;67.10;;;9.90;99.90;;;;;;5068653;28;20052;-71
2021/12/15 05:35:24;;;;;;;125.00;68.55;;;9.90;99.90;;;;;;5064591;28;20404;-71
2021/12/15 05:37:54;;;;;;;132.02;65.05;;;9.90;99.90;;;;;;5066315;28;20051;-71
2021/12/15 05:40:20;;;;;;;134.18;67.70;;;10.00;99.90;;;;;;5079501;28;20056;-71
2021/12/15 05:42:48;;;;;;;148.65;69.30;;;9.90;99.90;;;;;;5070153;28;20094;-71
2021/12/15 05:45:14;;;;;;;148.50;68.90;;;9.90;99.90;;;;;;5069425;28;20044;-71
2021/12/15 05:47:40;;;;;;;152.65;71.03;;;9.90;99.90;;;;;;5072354;28;20522;-71
2021/12/15 05:50:11;;;;;;;153.80;74.65;;;9.90;99.90;;;;;;5062048;28;20551;-71
2021/12/15 05:52:37;;;;;;;142.73;69.35;;;9.90;99.90;;;;;;5068136;28;20059;-71
2021/12/15 05:55:06;;;;;;;137.70;68.25;;;9.90;99.90;;;;;;5069328;28;20044;-71
2021/12/15 05:57:32;;;;;;;145.35;71.10;;;9.90;99.90;;;;;;5078628;28;20083;-71
2021/12/15 05:59:58;;;;;;;142.75;72.22;;;9.90;99.90;;;;;;5071375;28;20041;-71
2021/12/15 06:02:24;;;;;;;155.70;71.72;;;9.90;99.90;;;;;;5091186;28;20054;-71
2021/12/15 06:04:50;;;;;;;148.73;69.72;;;9.90;99.90;;;;;;5073348;28;20063;-71
2021/12/15 06:07:16;;;;;;;145.63;68.40;;;9.90;99.90;;;;;;5070837;28;20119;-71
2021/12/15 06:09:41;;;;;;;135.05;68.35;;;9.90;99.90;;;;;;5074522;28;20101;-71
2021/12/15 06:12:08;;;;;;;153.52;69.68;;;9.90;99.90;;;;;;5068440;28;20535;-71
2021/12/15 06:14:35;;;;;;;131.55;66.72;;;10.00;99.90;;;;;;5062754;28;20044;-71
2021/12/15 06:17:05;;;;;;;148.25;68.45;;;9.90;99.90;;;;;;5088693;28;20044;-71
2021/12/15 06:19:31;;;;;;;130.75;65.60;;;10.00;99.90;;;;;;5070954;28;20048;-71
2021/12/15 06:21:57;;;;;;;135.30;67.07;;;10.00;99.90;;;;;;5064900;28;20051;-71
2021/12/15 06:24:23;;;;;;;134.15;67.57;;;10.00;99.90;;;;;;5068209;28;20040;-71
2021/12/15 06:26:49;;;;;;;131.05;67.95;;;10.00;99.90;;;;;;5071811;28;20048;-71
2021/12/15 06:29:15;;;;;;;136.60;67.72;;;10.00;99.90;;;;;;5070565;28;20390;-71
2021/12/15 06:31:41;;;;;;;138.43;70.40;;;9.90;99.90;;;;;;5087329;28;20055;-71
2021/12/15 06:34:07;;;;;;;148.82;69.95;;;9.90;99.90;;;;;;5069290;28;20485;-71
2021/12/15 06:36:34;;;;;;;146.43;69.47;;;9.90;99.90;;;;;;5079626;28;20112;-71
2021/12/15 06:39:02;;;;;;;133.82;68.60;;;9.90;99.90;;;;;;5069614;28;20044;-71
2021/12/15 06:41:27;;;;;;;138.40;68.35;;;9.90;99.90;;;;;;5068066;28;20047;-71
2021/12/15 06:43:56;;;;;;;144.02;69.03;;;9.90;99.90;;;;;;5066185;28;20421;-71
2021/12/15 07:00:00;;;;;;;144.07;70.22;;;9.90;99.90;;;;;;5067996;28;20638;-71
2021/12/15 07:02:27;;;;;;;141.50;72.53;;;9.90;99.90;;;;;;5060463;28;20055;-71
2021/12/15 07:04:52;;;;;;;145.27;70.70;;;9.90;99.90;;;;;;5077299;28;23042;-71
2021/12/15 07:07:18;;;;;;;139.52;67.60;;;9.90;99.90;;;;;;5067884;28;20083;-71
2021/12/15 07:09:44;;;;;;;141.07;68.05;;;9.90;99.90;;;;;;5065486;28;20127;-71
2021/12/15 07:12:10;;;;;;;130.77;67.32;;;9.90;99.90;;;;;;5070346;28;20049;-71
2021/12/15 07:14:35;;;;;;;148.48;66.75;;;9.90;99.90;;;;;;5089419;28;20052;-71
2021/12/15 07:17:08;;;;;;;132.38;66.95;;;9.90;99.90;;;;;;5064591;28;20460;-71
2021/12/15 07:22:32;;;;;;;134.38;70.07;;;9.90;99.90;;;;;;5070059;28;20873;-71
2021/12/15 07:24:59;;;;;;;137.90;67.00;;;9.90;99.90;;;;;;5071946;28;20493;-71
2021/12/15 07:27:25;;;;;;;125.22;65.68;;;9.90;99.90;;;;;;5077358;28;20055;-71
2021/12/15 07:29:51;;;;;;;127.25;65.18;;;9.90;99.90;;;;;;5056589;28;20040;-71
2021/12/15 07:32:17;;;;;;;133.80;67.45;;;9.90;99.90;;;;;;5087746;28;20047;-71
2021/12/15 07:34:43;;;;;;;133.10;67.07;;;9.90;99.90;;;;;;5071556;28;20040;-71
2021/12/15 07:37:08;;;;;;;136.75;64.57;;;9.90;99.90;;;;;;5065937;28;20048;-71
2021/12/15 07:39:36;;;;;;;132.48;68.45;;;9.90;99.90;;;;;;5065799;28;20182;-71
2021/12/15 07:42:09;;;;;;;132.95;65.80;;;9.90;99.90;;;;;;5088063;28;20044;-71
2021/12/15 07:44:35;;;;;;;135.05;65.07;;;9.90;99.90;;;;;;5056006;28;20054;-71
2021/12/15 07:47:01;;;;;;;124.78;63.35;;;9.90;99.90;;;;;;5067577;28;20130;-71
2021/12/15 07:49:28;;;;;;;125.57;62.22;;;9.90;99.90;;;;;;5070694;28;20045;-71
2021/12/15 07:52:01;;;;;;;118.07;61.83;;;9.90;99.90;;;;;;5093165;28;20511;-71
2021/12/15 07:54:28;;;;;;;122.45;61.03;;;9.90;99.90;;;;;;5069781;28;20503;-71
2021/12/15 07:56:54;;;;;;;116.13;62.30;;;9.90;99.90;;;;;;5063139;28;20125;-71
2021/12/15 07:59:19;;;;;;;120.95;61.25;;;9.90;99.90;;;;;;5064188;28;20329;-71
2021/12/15 08:01:45;;;;;;;128.65;63.25;;;9.90;99.90;;;;;;5076443;28;20044;-71
2021/12/15 08:04:12;;;;;;;121.75;60.22;;;10.00;99.90;;;;;;5067159;28;20133;-71
2021/12/15 08:06:38;;;;;;;115.50;60.20;;;9.90;99.90;;;;;;5071244;28;20055;-71
2021/12/15 08:09:05;;;;;;;118.95;59.05;;;9.90;99.90;;;;;;5067365;28;20036;-72
2021/12/15 08:11:30;;;;;;;109.95;55.97;;;9.90;99.90;;;;;;5064807;28;20047;-71
2021/12/15 08:13:57;;;;;;;119.43;56.20;;;9.90;99.90;;;;;;5067061;28;20040;-71
2021/12/15 08:16:24;;;;;;;115.28;58.42;;;10.00;99.90;;;;;;5064107;28;20044;-71
2021/12/15 08:18:50;;;;;;;116.37;58.27;;;10.00;99.90;;;;;;5067479;28;20055;-71
2021/12/15 08:21:16;;;;;;;103.40;54.83;;;10.00;99.90;;;;;;5065948;28;20447;-71
2021/12/15 08:23:42;;;;;;;110.60;55.30;;;10.00;99.90;;;;;;5069854;28;20100;-71
2021/12/15 08:26:08;;;;;;;98.30;52.60;;;10.00;99.90;;;;;;5071652;28;20044;-71
2021/12/15 08:28:35;;;;;;;104.55;56.53;;;10.00;99.90;;;;;;5079022;28;20048;-71
2021/12/15 08:31:00;;;;;;;111.43;55.70;;;10.00;99.90;;;;;;5056444;28;20091;-71
2021/12/15 08:33:27;;;;;;;102.90;52.97;;;10.00;99.90;;;;;;5086797;28;20500;-71
2021/12/15 08:35:56;;;;;;;101.43;53.10;;;10.00;99.90;;;;;;5064864;28;20409;-71
2021/12/15 08:38:23;;;;;;;98.85;52.70;;;10.00;99.90;;;;;;5065488;28;20697;-71
2021/12/15 08:40:51;;;;;;;103.75;54.05;;;10.00;99.90;;;;;;5056670;28;20044;-71
2021/12/15 08:43:18;;;;;;;109.97;55.63;;;10.00;99.90;;;;;;5080359;28;20096;-71
2021/12/15 08:45:48;;;;;;;111.38;55.38;;;10.00;99.90;;;;;;5062050;28;20048;-71
2021/12/15 08:48:14;;;;;;;105.45;53.72;;;10.00;99.90;;;;;;5061966;28;20067;-72
2021/12/15 08:50:41;;;;;;;97.22;49.78;;;10.00;99.90;;;;;;5075248;28;20623;-71
2021/12/15 08:53:10;;;;;;;101.45;52.15;;;10.10;99.90;;;;;;5066650;28;20055;-71
2021/12/15 08:55:45;;;;;;;103.07;53.67;;;10.00;99.90;;;;;;5063709;28;20525;-71
2021/12/15 08:58:12;;;;;;;99.07;51.00;;;10.10;99.90;;;;;;5064454;28;20055;-71
2021/12/15 09:00:43;;;;;;;95.03;54.60;;;10.10;99.90;;;;;;5061606;28;20517;-71
2021/12/15 09:03:11;;;;;;;87.50;51.60;;;10.10;99.90;;;;;;5065409;28;20455;-71
2021/12/15 09:05:38;;;;;;;104.47;52.42;;;10.10;99.90;;;;;;5068980;28;20048;-71
2021/12/15 09:08:05;;;;;;;100.78;53.40;;;10.10;99.90;;;;;;5070362;28;20528;-71
2021/12/15 09:10:34;;;;;;;94.03;51.33;;;10.10;99.90;;;;;;5060372;28;20413;-71
2021/12/15 09:13:00;;;;;;;99.30;51.72;;;10.20;99.90;;;;;;5063272;28;20047;-71
2021/12/15 09:15:26;;;;;;;99.97;52.33;;;10.20;99.90;;;;;;5067897;28;20397;-71
2021/12/15 09:17:53;;;;;;;91.97;51.38;;;10.20;99.90;;;;;;5088176;28;20041;-71
2021/12/15 09:20:23;;;;;;;93.88;50.85;;;10.20;99.90;;;;;;5070699;28;20059;-71
2021/12/15 09:22:48;;;;;;;88.10;46.17;;;10.20;99.90;;;;;;5075063;28;20464;-71
2021/12/15 09:25:15;;;;;;;98.20;50.47;;;10.30;99.90;;;;;;5085513;28;20131;-71
2021/12/15 09:27:43;;;;;;;88.20;47.75;;;10.30;99.90;;;;;;5069391;28;20063;-71
2021/12/15 09:30:16;;;;;;;96.10;49.13;;;10.30;99.90;;;;;;5090525;28;20044;-71
2021/12/15 09:32:42;;;;;;;88.70;46.47;;;10.30;99.90;;;;;;5070450;28;20094;-71
2021/12/15 09:35:09;;;;;;;93.43;49.60;;;10.30;99.90;;;;;;5069329;28;20528;-71
2021/12/15 09:37:35;;;;;;;87.65;48.33;;;10.20;99.90;;;;;;5074500;28;20055;-71
2021/12/15 09:40:00;;;;;;;93.60;49.58;;;10.30;99.90;;;;;;5069147;28;20432;-71
2021/12/15 09:42:33;;;;;;;89.45;49.65;;;10.30;99.90;;;;;;5069523;28;20532;-71
2021/12/15 09:45:15;;;;;;;85.65;49.35;;;10.30;99.90;;;;;;5066004;28;20127;-71
2021/12/15 10:07:03;;;;;;;82.93;46.50;;;10.50;99.90;;;;;;5067886;28;20056;-71
2021/12/15 10:19:56;;;;;;;86.00;45.50;;;10.60;99.90;;;;;;5068685;28;20127;-71
2021/12/15 10:25:20;;;;;;;71.70;41.83;;;10.70;99.90;;;;;;5069490;28;20136;-71
2021/12/15 10:27:54;;;;;;;75.72;42.42;;;10.70;99.90;;;;;;5063689;28;20080;-71
2021/12/15 10:30:28;;;;;;;75.63;42.97;;;10.70;99.90;;;;;;5065021;28;20052;-71
2021/12/15 10:32:57;;;;;;;75.68;42.08;;;10.70;99.90;;;;;;5068230;28;20055;-71
2021/12/15 10:35:28;;;;;;;73.65;40.95;;;10.80;99.90;;;;;;5066415;28;20046;-71
2021/12/15 10:38:18;;;;;;;79.65;40.15;;;10.80;99.90;;;;;;5080169;28;20055;-71
2021/12/15 10:40:55;;;;;;;78.63;40.42;;;10.80;99.90;;;;;;5079249;28;20097;-71
2021/12/15 10:43:24;;;;;;;65.53;38.28;;;10.90;99.90;;;;;;5064894;28;20116;-71
2021/12/15 10:45:53;;;;;;;80.25;40.50;;;10.90;99.90;;;;;;5084369;28;20123;-71
2021/12/15 10:48:37;;;;;;;67.65;37.92;;;10.90;99.90;;;;;;5061677;28;20049;-70
2021/12/15 10:51:23;;;;;;;67.28;39.60;;;10.90;99.90;;;;;;5064111;28;20049;-71
2021/12/15 10:53:51;;;;;;;68.32;39.10;;;10.90;99.90;;;;;;5064079;28;20595;-71
2021/12/15 10:56:23;;;;;;;74.45;40.42;;;10.90;99.90;;;;;;5081646;28;20067;-71
2021/12/15 10:58:53;;;;;;;66.70;37.95;;;10.90;99.90;;;;;;5063566;28;20587;-71
2021/12/15 11:01:40;;;;;;;67.38;37.28;;;10.90;99.90;;;;;;5077827;28;20087;-71
2021/12/15 11:04:27;;;;;;;63.60;38.15;;;10.90;99.90;;;;;;5063282;28;20044;-70
2021/12/15 11:07:21;;;;;;;70.47;36.85;;;11.00;99.90;;;;;;5061039;28;20051;-70
2021/12/15 11:10:13;;;;;;;62.40;37.17;;;11.00;99.90;;;;;;5078852;28;20493;-70
2021/12/15 11:12:47;;;;;;;64.07;37.60;;;11.00;99.90;;;;;;5051836;28;20524;-70
2021/12/15 11:15:25;;;;;;;59.97;35.40;;;11.00;99.90;;;;;;5058760;28;20503;-70
2021/12/15 11:18:12;;;;;;;;;;;11.10;99.90;;;;;;5068129;28;20048;-70
2021/12/15 11:20:40;;;;;;;62.33;32.78;;;11.10;99.90;;;;;;5060484;28;19920;-70
2021/12/15 11:23:08;;;;;;;58.70;34.83;;;11.10;99.90;;;;;;5060951;28;20052;-70
2021/12/15 11:25:40;;;;;;;63.13;37.28;;;11.20;99.90;;;;;;5065346;28;20076;-70
2021/12/15 11:28:08;;;;;;;63.90;32.35;;;11.20;99.90;;;;;;5081963;28;20056;-70
2021/12/15 11:30:48;;;;;;;59.60;33.40;;;11.20;99.90;;;;;;5082970;28;20046;-70
2021/12/15 11:33:23;;;;;;;53.00;31.50;;;11.20;99.90;;;;;;5063980;28;20492;-70
2021/12/15 11:35:54;;;;;;;59.83;32.85;;;11.20;99.90;;;;;;5058682;28;20068;-70
2021/12/15 11:38:47;;;;;;;60.40;34.40;;;11.20;99.90;;;;;;5064027;28;20098;-71
2021/12/15 11:41:19;;;;;;;53.10;32.03;;;11.20;99.90;;;;;;5063392;28;20055;-71
2021/12/15 11:43:59;;;;;;;52.80;32.83;;;11.20;99.90;;;;;;5063595;28;20489;-71
2021/12/15 11:46:30;;;;;;;54.88;29.52;;;11.20;99.90;;;;;;5062484;28;20450;-71
2021/12/15 11:49:09;;;;;;;53.88;31.30;;;11.10;99.90;;;;;;5062757;28;20047;-71
2021/12/15 11:52:06;;;;;;;52.42;30.95;;;11.10;99.90;;;;;;5060095;28;20098;-71
2021/12/15 11:54:35;;;;;;;51.23;28.47;;;11.10;99.90;;;;;;5056426;28;20702;-72
2021/12/15 11:57:03;;;;;;;49.75;28.63;;;11.10;99.90;;;;;;5067404;28;20051;-72
2021/12/15 11:59:35;;;;;;;43.55;27.90;;;11.10;99.90;;;;;;5064863;28;20111;-72
2021/12/15 12:02:26;;;;;;;58.80;31.55;;;11.10;99.90;;;;;;5063886;28;20076;-72
2021/12/15 12:04:57;;;;;;;40.88;27.63;;;11.10;99.90;;;;;;5059997;28;20084;-72
2021/12/15 12:07:47;;;;;;;42.45;27.80;;;11.10;99.90;;;;;;5057955;28;20980;-71
2021/12/15 12:10:21;;;;;;;40.58;23.15;;;11.10;99.90;;;;;;5060717;28;20037;-71
2021/12/15 12:12:54;;;;;;;38.45;23.23;;;11.10;99.90;;;;;;5062046;28;20409;-72
2021/12/15 12:15:26;;;;;;;44.97;24.17;;;11.10;99.90;;;;;;5060678;28;20512;-71
2021/12/15 12:17:56;;;;;;;38.15;23.17;;;11.10;99.90;;;;;;5085794;28;20051;-72
2021/12/15 12:20:26;;;;;;;46.78;26.33;;;11.10;99.90;;;;;;5057415;28;20055;-71
2021/12/15 12:22:54;;;;;;;50.10;25.77;;;11.10;99.90;;;;;;5064437;28;20445;-72
2021/12/15 12:25:24;;;;;;;48.03;27.50;;;11.00;99.90;;;;;;5079363;28;20390;-72
2021/12/15 12:27:52;;;;;;;50.67;30.13;;;11.00;99.90;;;;;;5062864;28;20060;-72
2021/12/15 12:30:28;;;;;;;50.92;31.63;;;10.90;99.90;;;;;;5060812;28;20095;-72
2021/12/15 12:32:54;;;;;;;55.75;29.08;;;10.90;99.90;;;;;;5060041;28;20044;-71
2021/12/15 12:35:25;;;;;;;58.47;30.52;;;10.90;99.90;;;;;;5061901;28;20087;-71
2021/12/15 12:37:59;;;;;;;46.70;30.67;;;10.90;99.90;;;;;;5062376;28;20052;-71
2021/12/15 12:40:35;;;;;;;48.92;28.17;;;10.90;99.90;;;;;;5055558;28;20131;-72
2021/12/15 12:43:21;;;;;;;48.13;29.77;;;10.90;99.90;;;;;;5065516;28;20048;-71
2021/12/15 12:46:09;;;;;;;47.55;28.52;;;10.90;99.90;;;;;;5068514;28;20055;-71
2021/12/15 12:49:21;;;;;;;49.10;26.88;;;11.00;99.90;;;;;;5061168;28;20036;-71
2021/12/15 12:59:23;;;;;;;47.17;27.08;;;10.90;99.90;;;;;;4992921;28;20058;-71
2021/12/15 13:00:55;;;;;;;48.13;25.60;;;11.00;99.90;;;;;;5066464;28;20075;-71
2021/12/15 13:03:47;;;;;;;38.60;23.33;;;11.00;99.90;;;;;;5060555;28;20054;-71
2021/12/15 13:06:19;;;;;;;46.95;23.15;;;11.00;99.90;;;;;;5084396;28;20044;-71
2021/12/15 13:08:58;;;;;;;42.22;22.95;;;11.00;99.90;;;;;;5068638;28;20079;-71
2021/12/15 13:11:38;;;;;;;32.17;21.38;;;11.00;99.90;;;;;;5067493;28;20481;-71
2021/12/15 13:14:11;;;;;;;32.17;22.08;;;11.00;99.90;;;;;;5063605;28;20096;-71
2021/12/15 13:16:53;;;;;;;30.13;19.60;;;11.00;99.90;;;;;;5080898;28;20884;-72
2021/12/15 13:19:40;;;;;;;37.35;21.15;;;11.00;99.90;;;;;;5070468;28;20070;-71
2021/12/15 13:30:51;;;;;;;35.60;21.65;;;10.80;99.90;;;;;;5088265;28;20062;-72
2021/12/15 13:33:42;;;;;;;34.53;20.60;;;10.80;99.90;;;;;;5068654;28;20052;-72
2021/12/15 13:36:18;;;;;;;40.53;20.58;;;10.70;99.90;;;;;;5052691;28;20052;-72
2021/12/15 13:38:45;;;;;;;29.98;18.92;;;10.70;99.90;;;;;;5065373;28;20489;-71
2021/12/15 13:41:26;;;;;;;29.33;14.77;;;10.70;99.90;;;;;;5059689;28;20040;-71
2021/12/15 13:43:56;;;;;;;22.52;13.02;;;10.60;99.90;;;;;;5064470;28;20306;-71
2021/12/15 13:46:28;;;;;;;22.67;12.82;;;10.60;99.90;;;;;;5068309;28;20056;-71
2021/12/15 13:48:56;;;;;;;26.38;12.77;;;10.50;99.90;;;;;;5061264;28;20428;-71
2021/12/15 13:51:42;;;;;;;;;;;10.50;99.90;;;;;;5060888;28;20459;-71
2021/12/15 13:54:40;;;;;;;16.67;10.90;;;10.40;99.90;;;;;;5045858;28;19928;-72
2021/12/15 13:57:12;;;;;;;19.30;11.05;;;10.40;99.90;;;;;;5035645;28;20101;-72
2021/12/15 13:59:39;;;;;;;18.83;10.52;;;10.40;99.90;;;;;;5078596;28;20919;-72
2021/12/15 14:02:13;;;;;;;29.77;10.95;;;10.30;99.90;;;;;;5085333;28;20044;-72
2021/12/15 14:04:54;;;;;;;24.08;11.32;;;10.30;99.90;;;;;;5067965;28;20370;-72
2021/12/15 14:07:32;;;;;;;22.00;10.98;;;10.20;99.90;;;;;;5062072;28;20086;-72
2021/12/15 14:10:02;;;;;;;19.60;10.77;;;10.20;99.90;;;;;;5062382;28;20072;-72
2021/12/15 14:12:48;;;;;;;20.17;10.35;;;10.20;99.90;;;;;;5062833;28;20054;-72
2021/12/15 14:15:24;;;;;;;27.55;11.55;;;10.30;99.90;;;;;;5065538;28;20054;-72